Time;durP1;ratioP1;P1;durP2;ratioP2;P2;SDS_P1;SDS_P2;PMS_P1;PMS_P2;Temp;Humidity;BMP_temperature;BMP_pressure;BME280_temperature;BME280_humidity;BME280_pressure;Samples;Min_cycle;Max_cycle;Signal;HPM_P1;HPM_P2
2022/08/01 00:00:08;;;;;;;4.07;2.50;;;20.60;82.20;;;;;;5004007;28;20434;-72
2022/08/01 00:02:55;;;;;;;3.47;2.33;;;20.60;81.60;;;;;;5010207;28;20476;-72
2022/08/01 00:05:43;;;;;;;2.73;2.23;;;20.60;81.50;;;;;;5006061;28;20453;-72
2022/08/01 00:08:29;;;;;;;4.27;2.50;;;20.50;81.90;;;;;;5010367;28;20445;-72
2022/08/01 00:11:14;;;;;;;4.00;2.97;;;20.60;82.60;;;;;;5000956;28;20449;-72
2022/08/01 00:14:00;;;;;;;3.57;2.70;;;20.50;82.90;;;;;;5002648;28;20572;-72
2022/08/01 00:16:46;;;;;;;3.13;2.30;;;20.40;83.30;;;;;;5004169;28;20577;-72
2022/08/01 00:19:34;;;;;;;5.80;2.37;;;20.30;84.10;;;;;;5007155;28;20585;-72
2022/08/01 00:22:20;;;;;;;4.33;2.77;;;20.20;84.70;;;;;;5011796;28;20555;-72
2022/08/01 00:25:07;;;;;;;5.60;3.47;;;20.20;85.30;;;;;;5008497;28;20448;-73
2022/08/01 00:27:54;;;;;;;3.83;2.13;;;20.10;85.70;;;;;;5006927;28;20489;-72
2022/08/01 00:30:39;;;;;;;4.40;2.70;;;20.10;85.70;;;;;;5014950;28;20449;-73
2022/08/01 00:33:25;;;;;;;8.03;2.40;;;20.10;86.20;;;;;;5010670;28;20500;-72
2022/08/01 00:36:12;;;;;;;4.40;2.87;;;20.10;86.50;;;;;;5004526;28;21049;-72
2022/08/01 00:38:57;;;;;;;3.00;2.50;;;20.20;86.40;;;;;;4997712;28;20583;-72
2022/08/01 00:41:43;;;;;;;4.30;3.13;;;20.20;86.80;;;;;;5000951;28;20469;-72
2022/08/01 00:44:29;;;;;;;4.80;2.90;;;20.30;87.10;;;;;;5008121;28;20518;-72
2022/08/01 00:47:14;;;;;;;3.10;2.30;;;20.20;87.20;;;;;;5004518;28;20465;-73
2022/08/01 00:50:00;;;;;;;4.20;2.80;;;20.20;87.20;;;;;;5003663;28;20900;-72
2022/08/01 00:52:47;;;;;;;3.93;2.97;;;20.30;87.40;;;;;;5011481;28;20421;-72
2022/08/01 00:55:33;;;;;;;3.50;2.60;;;20.30;87.10;;;;;;5005321;28;21018;-72
2022/08/01 00:58:19;;;;;;;4.37;2.80;;;20.20;87.00;;;;;;4998798;28;20462;-72
2022/08/01 01:01:04;;;;;;;5.67;2.93;;;20.10;87.50;;;;;;5002295;28;20472;-72
2022/08/01 01:03:50;;;;;;;6.83;2.90;;;20.00;88.10;;;;;;5004222;28;20504;-72
2022/08/01 01:06:49;;;;;;;3.80;2.63;;;19.90;88.70;;;;;;5006623;28;20575;-72
2022/08/01 01:09:43;;;;;;;3.70;3.03;;;19.90;89.10;;;;;;5002908;28;20793;-72
2022/08/01 01:12:35;;;;;;;4.10;2.87;;;19.90;89.20;;;;;;5004228;28;20809;-72
2022/08/01 01:15:27;;;;;;;5.20;3.00;;;19.80;89.70;;;;;;5005253;28;20560;-72
2022/08/01 01:18:17;;;;;;;4.27;2.60;;;19.90;89.80;;;;;;5005407;28;20445;-72
2022/08/01 01:21:13;;;;;;;5.63;2.97;;;19.90;90.00;;;;;;5006409;28;20485;-72
2022/08/01 01:24:11;;;;;;;4.50;2.97;;;19.70;90.10;;;;;;5003427;28;20429;-72
2022/08/01 01:27:03;;;;;;;3.57;3.20;;;19.70;90.40;;;;;;5002010;28;20470;-72
2022/08/01 01:29:54;;;;;;;3.63;2.87;;;19.60;90.70;;;;;;5004348;28;20453;-72
2022/08/01 01:32:44;;;;;;;3.73;2.50;;;19.50;90.90;;;;;;5003871;28;20975;-72
2022/08/01 01:35:33;;;;;;;3.63;2.70;;;19.50;91.10;;;;;;5003681;28;20827;-72
2022/08/01 01:38:22;;;;;;;10.50;2.60;;;19.50;91.10;;;;;;5005777;28;20540;-72
2022/08/01 01:41:09;;;;;;;3.20;2.70;;;19.50;91.10;;;;;;5004390;28;20593;-72
2022/08/01 01:43:56;;;;;;;3.57;3.03;;;19.30;91.70;;;;;;5006218;28;20515;-72
2022/08/01 01:46:44;;;;;;;3.73;2.70;;;19.20;92.70;;;;;;5003277;28;20476;-72
2022/08/01 01:49:32;;;;;;;3.40;2.70;;;19.10;93.10;;;;;;5008191;28;20433;-72
2022/08/01 01:52:19;;;;;;;3.73;2.43;;;19.10;93.40;;;;;;5002047;28;20404;-72
2022/08/01 01:55:08;;;;;;;8.50;4.00;;;19.00;93.90;;;;;;5001388;28;20532;-72
2022/08/01 01:57:56;;;;;;;4.83;3.23;;;19.10;94.00;;;;;;4994904;28;20480;-72
2022/08/01 02:00:45;;;;;;;6.50;3.03;;;19.00;94.20;;;;;;5003580;28;20500;-72
2022/08/01 02:03:36;;;;;;;5.63;2.90;;;19.00;94.50;;;;;;4999935;28;20524;-72
2022/08/01 02:06:24;;;;;;;3.40;2.20;;;19.10;94.60;;;;;;5000347;28;21000;-72
2022/08/01 02:09:10;;;;;;;7.70;3.10;;;19.10;94.50;;;;;;5003291;28;20454;-72
2022/08/01 02:11:58;;;;;;;4.00;2.80;;;19.20;94.50;;;;;;5004319;28;20931;-72
2022/08/01 02:14:45;;;;;;;5.33;2.67;;;19.10;94.70;;;;;;5000935;28;20588;-72
2022/08/01 02:17:32;;;;;;;5.40;3.10;;;19.20;94.60;;;;;;5004958;28;20569;-72
2022/08/01 02:20:19;;;;;;;7.03;3.20;;;19.30;94.20;;;;;;5001055;28;20460;-72
2022/08/01 02:23:09;;;;;;;4.80;3.50;;;19.30;94.30;;;;;;5008544;28;20476;-72
2022/08/01 02:25:58;;;;;;;8.50;3.37;;;19.20;94.40;;;;;;5002877;28;20608;-72
2022/08/01 02:28:48;;;;;;;5.67;3.40;;;19.20;94.70;;;;;;5005126;28;20533;-72
2022/08/01 02:31:38;;;;;;;5.13;3.00;;;19.00;94.80;;;;;;5003051;28;20445;-72
2022/08/01 02:34:26;;;;;;;4.13;2.73;;;19.00;95.70;;;;;;5002180;28;20442;-72
2022/08/01 02:37:14;;;;;;;3.30;2.37;;;18.90;96.70;;;;;;5005357;28;20476;-72
2022/08/01 02:40:01;;;;;;;3.77;2.50;;;19.00;97.20;;;;;;5001610;28;20457;-73
2022/08/01 02:42:50;;;;;;;7.13;3.27;;;19.00;97.30;;;;;;5007025;28;20480;-72
2022/08/01 02:45:40;;;;;;;3.50;2.80;;;19.10;97.40;;;;;;5000423;28;20452;-72
2022/08/01 02:48:27;;;;;;;7.60;2.80;;;19.20;97.80;;;;;;5003278;28;20447;-72
2022/08/01 02:51:14;;;;;;;4.10;3.03;;;19.20;97.90;;;;;;5006931;28;20452;-72
2022/08/01 02:54:04;;;;;;;3.50;2.70;;;19.30;97.90;;;;;;5004036;28;20430;-73
2022/08/01 02:56:52;;;;;;;4.33;3.33;;;19.30;97.80;;;;;;5006129;28;20472;-72
2022/08/01 02:59:39;;;;;;;3.90;2.77;;;19.40;97.70;;;;;;5000863;28;20539;-72
2022/08/01 03:02:26;;;;;;;6.17;3.20;;;19.40;97.60;;;;;;5002029;28;21137;-72
2022/08/01 03:05:13;;;;;;;5.73;3.03;;;19.40;97.40;;;;;;5000003;28;20445;-72
2022/08/01 03:08:01;;;;;;;5.20;3.30;;;19.30;97.50;;;;;;5005017;28;20923;-72
2022/08/01 03:10:49;;;;;;;3.50;2.47;;;19.20;98.00;;;;;;5001298;28;20437;-72
2022/08/01 03:13:35;;;;;;;3.43;2.43;;;19.20;98.60;;;;;;5000642;28;20488;-72
2022/08/01 03:16:23;;;;;;;4.93;2.87;;;19.30;98.70;;;;;;5002674;28;20494;-72
2022/08/01 03:19:12;;;;;;;4.53;2.60;;;19.20;99.00;;;;;;5000613;28;20426;-71
2022/08/01 03:21:59;;;;;;;3.53;2.60;;;19.20;99.40;;;;;;4997896;28;20450;-72
2022/08/01 03:24:49;;;;;;;9.33;2.93;;;19.10;99.80;;;;;;5000975;28;20815;-72
2022/08/01 03:27:38;;;;;;;8.57;2.90;;;19.00;99.90;;;;;;5000320;28;20986;-72
2022/08/01 03:30:25;;;;;;;4.77;2.67;;;19.00;99.90;;;;;;5007679;28;20465;-72
2022/08/01 03:33:11;;;;;;;5.17;2.57;;;19.00;99.90;;;;;;5007339;28;20438;-72
2022/08/01 03:36:01;;;;;;;10.33;2.70;;;19.00;99.90;;;;;;5000155;28;20971;-72
2022/08/01 03:38:48;;;;;;;2.90;2.33;;;18.90;99.90;;;;;;5003572;28;20446;-72
2022/08/01 03:41:38;;;;;;;3.80;2.80;;;18.90;99.90;;;;;;5003761;28;20437;-72
2022/08/01 03:44:29;;;;;;;2.90;2.57;;;19.00;99.90;;;;;;5003854;28;20862;-72
2022/08/01 03:47:18;;;;;;;3.10;2.00;;;19.00;99.90;;;;;;5000450;28;20474;-72
2022/08/01 03:50:05;;;;;;;5.10;2.57;;;19.10;99.90;;;;;;5000368;28;20532;-72
2022/08/01 03:52:52;;;;;;;4.60;2.97;;;19.00;99.90;;;;;;5001670;28;20463;-72
2022/08/01 03:55:40;;;;;;;3.40;2.90;;;19.00;99.90;;;;;;5004862;28;21082;-72
2022/08/01 03:58:26;;;;;;;3.53;2.50;;;19.00;99.90;;;;;;5006970;28;20453;-72
2022/08/01 04:01:14;;;;;;;3.30;2.57;;;19.10;99.90;;;;;;5002363;28;20791;-72
2022/08/01 04:04:01;;;;;;;3.57;2.67;;;19.00;99.90;;;;;;5001514;28;20999;-72
2022/08/01 04:06:50;;;;;;;5.50;2.67;;;19.00;99.90;;;;;;4994331;28;20446;-72
2022/08/01 04:09:36;;;;;;;7.10;3.57;;;19.00;99.90;;;;;;5004778;28;20453;-72
2022/08/01 04:12:22;;;;;;;3.13;2.13;;;18.90;99.90;;;;;;4999714;28;20445;-72
2022/08/01 04:15:08;;;;;;;5.00;2.57;;;19.00;99.90;;;;;;4999668;28;20450;-72
2022/08/01 04:17:55;;;;;;;7.20;2.17;;;19.00;99.90;;;;;;5004860;28;20892;-72
2022/08/01 04:20:41;;;;;;;4.27;3.07;;;19.00;99.90;;;;;;5007584;28;20458;-72
2022/08/01 04:23:32;;;;;;;3.90;2.40;;;19.10;99.90;;;;;;5007597;28;21166;-72
2022/08/01 04:26:19;;;;;;;11.13;2.80;;;19.00;99.90;;;;;;5006848;28;20550;-72
2022/08/01 04:29:07;;;;;;;4.10;3.00;;;19.10;99.90;;;;;;5004716;28;20469;-72
2022/08/01 04:31:55;;;;;;;6.90;2.90;;;19.10;99.90;;;;;;5003155;28;20437;-72
2022/08/01 04:34:44;;;;;;;8.87;4.00;;;19.10;99.90;;;;;;5002514;28;20967;-72
2022/08/01 04:37:32;;;;;;;5.47;3.73;;;19.10;99.90;;;;;;5005848;28;21015;-72
2022/08/01 04:40:21;;;;;;;4.70;2.20;;;19.30;99.90;;;;;;5006197;28;20945;-72
2022/08/01 04:43:08;;;;;;;3.10;2.20;;;19.40;99.90;;;;;;5004775;28;20481;-72
2022/08/01 04:45:55;;;;;;;3.70;2.03;;;19.50;99.90;;;;;;5004390;28;20442;-72
2022/08/01 04:48:41;;;;;;;3.90;2.10;;;19.60;99.90;;;;;;5008859;28;20436;-72
2022/08/01 04:51:28;;;;;;;4.03;2.40;;;19.70;99.90;;;;;;5009338;28;20522;-72
2022/08/01 04:54:14;;;;;;;4.00;2.10;;;19.70;99.90;;;;;;4994763;28;22443;-71
2022/08/01 04:57:00;;;;;;;3.57;2.07;;;19.90;99.90;;;;;;5007109;28;20844;-72
2022/08/01 04:59:46;;;;;;;4.30;2.43;;;19.90;99.90;;;;;;5007117;28;20452;-72
2022/08/01 05:02:32;;;;;;;3.80;2.70;;;20.00;99.90;;;;;;5009708;28;20436;-72
2022/08/01 05:05:17;;;;;;;4.03;2.70;;;20.10;99.90;;;;;;5009482;28;20527;-72
2022/08/01 05:08:05;;;;;;;5.90;2.53;;;20.20;99.90;;;;;;5001895;28;20441;-72
2022/08/01 05:10:52;;;;;;;3.67;2.47;;;20.20;99.90;;;;;;5004943;28;21064;-72
2022/08/01 05:13:38;;;;;;;2.83;1.93;;;20.20;99.90;;;;;;5002987;28;20449;-72
2022/08/01 05:16:24;;;;;;;4.37;2.23;;;20.20;99.90;;;;;;5002195;28;20465;-72
2022/08/01 05:19:09;;;;;;;3.90;2.40;;;20.20;99.90;;;;;;5004706;28;20446;-72
2022/08/01 05:21:55;;;;;;;6.00;2.60;;;20.20;99.90;;;;;;5002397;28;20426;-72
2022/08/01 05:24:42;;;;;;;3.00;2.27;;;20.20;99.90;;;;;;5005570;28;20481;-72
2022/08/01 05:27:28;;;;;;;5.40;2.97;;;20.20;99.90;;;;;;5004626;28;20551;-72
2022/08/01 05:30:14;;;;;;;4.10;2.70;;;20.30;99.90;;;;;;5002041;28;20465;-72
2022/08/01 05:32:59;;;;;;;6.60;3.10;;;20.30;99.90;;;;;;4998308;28;20439;-72
2022/08/01 05:35:44;;;;;;;3.60;2.87;;;20.30;99.90;;;;;;5003847;28;20438;-72
2022/08/01 05:38:30;;;;;;;3.10;2.50;;;20.30;99.90;;;;;;5009866;28;20803;-72
2022/08/01 05:41:17;;;;;;;6.50;2.73;;;20.40;99.90;;;;;;5008589;28;20450;-72
2022/08/01 05:44:03;;;;;;;5.33;2.53;;;20.40;99.90;;;;;;5005492;28;20477;-71
2022/08/01 05:46:49;;;;;;;2.90;2.13;;;20.50;99.90;;;;;;5005918;28;20462;-72
2022/08/01 05:49:34;;;;;;;4.40;2.50;;;20.50;99.90;;;;;;5003342;28;20817;-72
2022/08/01 05:52:20;;;;;;;3.00;2.70;;;20.60;99.90;;;;;;5001751;28;20450;-72
2022/08/01 05:55:07;;;;;;;6.23;2.90;;;20.70;99.90;;;;;;5015131;28;20433;-72
2022/08/01 05:57:54;;;;;;;4.93;2.40;;;20.70;99.90;;;;;;5000148;28;20481;-72
2022/08/01 06:00:40;;;;;;;4.20;2.07;;;20.80;99.90;;;;;;5006074;28;20445;-72
2022/08/01 06:03:26;;;;;;;5.70;2.73;;;20.80;99.90;;;;;;4999313;28;20477;-72
2022/08/01 06:06:13;;;;;;;3.77;2.50;;;20.90;99.90;;;;;;5006054;28;20988;-72
2022/08/01 06:08:59;;;;;;;3.93;2.63;;;20.90;99.90;;;;;;5001481;28;21016;-72
2022/08/01 06:11:44;;;;;;;4.03;2.80;;;20.90;99.90;;;;;;5004854;28;20450;-72
2022/08/01 06:14:31;;;;;;;3.90;2.57;;;21.00;99.90;;;;;;5007007;28;20441;-72
2022/08/01 06:17:17;;;;;;;4.60;2.20;;;21.10;99.90;;;;;;4998538;28;20465;-72
2022/08/01 06:20:03;;;;;;;5.97;2.33;;;21.20;99.90;;;;;;5003520;28;20545;-72
2022/08/01 06:22:48;;;;;;;3.60;2.27;;;21.30;99.90;;;;;;5003722;28;20444;-72
2022/08/01 06:25:34;;;;;;;3.80;1.90;;;21.30;99.90;;;;;;5002236;28;20454;-72
2022/08/01 06:28:20;;;;;;;4.90;1.60;;;21.40;99.90;;;;;;5006437;28;20494;-72
2022/08/01 06:31:07;;;;;;;3.13;1.40;;;21.50;99.90;;;;;;4999881;28;20464;-72
2022/08/01 06:33:53;;;;;;;4.70;1.90;;;21.50;99.90;;;;;;5003964;28;20517;-72
2022/08/01 06:36:38;;;;;;;3.53;1.90;;;21.60;99.90;;;;;;5000276;28;20951;-72
2022/08/01 06:39:24;;;;;;;2.93;1.70;;;21.60;99.90;;;;;;5006867;28;20792;-72
2022/08/01 06:42:10;;;;;;;2.40;1.60;;;21.70;99.80;;;;;;4996669;28;20505;-72
2022/08/01 06:44:55;;;;;;;7.47;1.50;;;21.80;99.50;;;;;;5010587;28;20828;-72
2022/08/01 06:47:43;;;;;;;4.40;1.70;;;21.90;98.60;;;;;;5009383;28;20468;-72
2022/08/01 06:50:29;;;;;;;6.63;1.90;;;22.00;98.30;;;;;;5007295;28;20857;-72
2022/08/01 06:53:15;;;;;;;2.43;1.30;;;22.10;97.10;;;;;;5004772;28;20438;-72
2022/08/01 06:56:00;;;;;;;3.43;1.60;;;22.00;97.00;;;;;;5009950;28;20449;-72
2022/08/01 06:58:46;;;;;;;3.50;1.70;;;22.00;97.20;;;;;;5008442;28;20444;-72
2022/08/01 07:01:31;;;;;;;2.43;1.60;;;22.00;97.00;;;;;;5001902;28;20796;-72
2022/08/01 07:04:18;;;;;;;5.30;1.67;;;22.00;96.70;;;;;;5010805;28;20611;-71
2022/08/01 07:07:04;;;;;;;4.40;1.90;;;22.10;96.90;;;;;;5009209;28;20847;-72
2022/08/01 07:09:49;;;;;;;3.90;1.70;;;22.10;96.70;;;;;;4999749;28;20461;-72
2022/08/01 07:12:36;;;;;;;2.80;1.80;;;22.20;96.40;;;;;;4999630;28;20452;-72
2022/08/01 07:15:26;;;;;;;2.70;1.67;;;22.20;96.10;;;;;;5003263;28;20811;-72
2022/08/01 07:18:11;;;;;;;3.10;1.63;;;22.30;96.40;;;;;;5007357;28;20480;-72
2022/08/01 07:20:59;;;;;;;10.20;2.00;;;22.40;96.10;;;;;;5005723;28;21061;-72
2022/08/01 07:23:44;;;;;;;4.80;1.80;;;22.50;96.00;;;;;;5004219;28;20493;-72
2022/08/01 07:26:30;;;;;;;5.13;1.57;;;22.70;94.80;;;;;;5008343;28;20469;-72
2022/08/01 07:29:16;;;;;;;7.70;1.70;;;22.80;94.40;;;;;;5006358;28;20565;-72
2022/08/01 07:32:02;;;;;;;3.90;1.33;;;23.00;93.70;;;;;;5001315;28;20437;-72
2022/08/01 07:34:48;;;;;;;3.00;2.20;;;23.10;92.40;;;;;;5010515;28;20545;-72
2022/08/01 07:37:35;;;;;;;3.27;1.57;;;23.00;90.70;;;;;;5001334;28;20465;-72
2022/08/01 07:40:21;;;;;;;3.17;1.67;;;23.00;91.10;;;;;;5006238;28;20445;-72
2022/08/01 07:43:07;;;;;;;3.33;2.00;;;23.10;91.90;;;;;;5002450;28;20903;-72
2022/08/01 07:45:53;;;;;;;4.47;1.63;;;23.20;90.80;;;;;;5003830;28;20441;-72
2022/08/01 07:48:38;;;;;;;5.03;1.77;;;23.20;89.40;;;;;;5006593;28;20861;-72
2022/08/01 07:51:24;;;;;;;2.97;1.90;;;23.30;88.60;;;;;;5001103;28;20446;-72
2022/08/01 07:54:11;;;;;;;6.40;2.10;;;23.30;87.60;;;;;;5009153;28;20445;-72
2022/08/01 07:56:56;;;;;;;3.73;2.17;;;23.20;86.50;;;;;;5007638;28;20513;-72
2022/08/01 07:59:42;;;;;;;3.40;2.50;;;23.10;86.40;;;;;;5002552;28;20449;-71
2022/08/01 08:02:28;;;;;;;3.87;1.90;;;22.90;86.50;;;;;;5014290;28;20441;-72
2022/08/01 08:05:14;;;;;;;6.47;2.00;;;23.00;88.10;;;;;;5004382;28;20470;-72
2022/08/01 08:07:59;;;;;;;4.13;2.30;;;23.10;89.00;;;;;;5008661;28;20810;-72
2022/08/01 08:10:46;;;;;;;2.80;1.70;;;23.40;85.30;;;;;;5003246;28;20449;-72
2022/08/01 08:13:32;;;;;;;3.27;1.87;;;23.60;85.10;;;;;;5011629;28;20449;-72
2022/08/01 08:16:17;;;;;;;2.67;1.37;;;23.60;85.20;;;;;;5013030;28;20520;-72
2022/08/01 08:19:03;;;;;;;2.90;1.60;;;23.80;84.60;;;;;;5009779;28;20958;-72
2022/08/01 08:21:48;;;;;;;5.70;2.07;;;23.80;79.50;;;;;;5007251;28;20441;-72
2022/08/01 08:24:34;;;;;;;2.60;1.70;;;23.80;77.70;;;;;;5010615;28;20472;-72
2022/08/01 08:27:21;;;;;;;4.30;1.70;;;23.90;77.00;;;;;;5013078;28;20473;-72
2022/08/01 08:30:08;;;;;;;2.73;1.50;;;24.00;76.70;;;;;;5003400;28;20512;-72
2022/08/01 08:32:53;;;;;;;3.40;1.60;;;24.10;78.00;;;;;;5012415;28;20441;-72
2022/08/01 08:35:41;;;;;;;2.87;1.50;;;24.10;75.10;;;;;;5006744;28;20954;-72
2022/08/01 08:38:27;;;;;;;4.13;1.80;;;24.20;74.30;;;;;;5010391;28;20441;-72
2022/08/01 08:41:13;;;;;;;3.07;1.80;;;24.30;76.10;;;;;;5009394;28;20966;-72
2022/08/01 08:44:01;;;;;;;5.10;2.00;;;24.30;74.40;;;;;;5011094;28;20851;-72
2022/08/01 08:46:48;;;;;;;3.37;2.20;;;24.20;74.00;;;;;;5009636;28;20457;-72
2022/08/01 08:49:34;;;;;;;6.23;2.43;;;24.10;75.00;;;;;;5005256;28;20453;-72
2022/08/01 08:52:21;;;;;;;2.77;1.80;;;24.00;75.00;;;;;;5009585;28;20512;-72
2022/08/01 08:55:08;;;;;;;2.20;1.40;;;24.00;74.00;;;;;;5009000;28;20528;-72
2022/08/01 08:57:55;;;;;;;4.00;1.40;;;24.00;73.70;;;;;;5012738;28;20551;-72
2022/08/01 09:00:42;;;;;;;3.77;1.83;;;24.00;73.90;;;;;;5007192;28;20445;-72
2022/08/01 09:03:27;;;;;;;2.57;1.70;;;24.00;72.20;;;;;;5007707;28;21058;-72
2022/08/01 09:06:13;;;;;;;6.67;1.47;;;24.10;73.40;;;;;;5011860;28;20469;-72
2022/08/01 09:09:00;;;;;;;3.33;1.73;;;24.20;73.00;;;;;;5005340;28;20453;-72
2022/08/01 09:11:45;;;;;;;4.60;2.13;;;24.10;71.80;;;;;;5012614;28;20580;-72
2022/08/01 09:14:31;;;;;;;3.67;1.80;;;24.10;72.40;;;;;;5011410;28;20484;-72
2022/08/01 09:17:18;;;;;;;4.23;1.73;;;24.30;70.80;;;;;;5007773;28;20551;-72
2022/08/01 09:20:04;;;;;;;3.73;1.50;;;24.40;70.30;;;;;;5006199;28;20452;-72
2022/08/01 09:22:50;;;;;;;2.77;1.70;;;24.50;69.00;;;;;;5003208;28;20592;-72
2022/08/01 09:25:51;;;;;;;3.33;1.67;;;24.60;67.70;;;;;;5005372;28;21037;-72
2022/08/01 09:31:07;;;;;;;2.30;1.63;;;24.50;66.30;;;;;;5041749;22;20497;-89
2022/08/01 09:33:57;;;;;;;2.67;1.60;;;24.40;68.50;;;;;;5037571;28;20249;-90
2022/08/01 09:36:51;;;;;;;5.30;1.70;;;24.50;65.50;;;;;;5032389;28;20441;-90
2022/08/01 09:39:40;;;;;;;3.00;1.70;;;24.60;66.00;;;;;;5022753;28;20599;-88
2022/08/01 09:42:27;;;;;;;2.90;1.70;;;24.70;66.40;;;;;;5044792;28;20435;-89
2022/08/01 09:45:32;;;;;;;4.60;1.90;;;24.80;65.70;;;;;;5030489;28;20607;-89
2022/08/01 09:48:18;;;;;;;3.10;1.77;;;25.00;66.50;;;;;;5031726;28;20444;-88
2022/08/01 09:51:05;;;;;;;2.30;1.10;;;25.00;63.40;;;;;;5035491;28;20479;-88
2022/08/01 09:53:51;;;;;;;6.50;1.70;;;25.00;61.80;;;;;;5024284;28;20480;-88
2022/08/01 09:56:38;;;;;;;3.40;1.60;;;24.90;62.10;;;;;;5023430;28;20440;-88
2022/08/01 09:59:35;;;;;;;1.80;1.03;;;25.00;63.20;;;;;;5024376;28;20543;-88
2022/08/01 10:02:30;;;;;;;3.33;1.27;;;25.10;60.80;;;;;;5022885;28;20449;-89
2022/08/01 10:05:16;;;;;;;2.70;1.70;;;25.30;56.80;;;;;;5028692;28;20664;-88
2022/08/01 10:08:05;;;;;;;2.50;1.37;;;25.70;57.50;;;;;;5025639;28;20456;-89
2022/08/01 10:11:07;;;;;;;1.90;1.10;;;25.80;58.80;;;;;;5029281;28;20555;-89
2022/08/01 10:13:53;;;;;;;2.20;1.27;;;26.00;59.90;;;;;;5029494;28;20514;-89
2022/08/01 10:16:40;;;;;;;2.40;1.40;;;26.20;55.70;;;;;;5028978;28;20583;-88
2022/08/01 10:19:28;;;;;;;2.70;1.20;;;26.30;53.30;;;;;;5027603;28;21004;-90
2022/08/01 10:22:16;;;;;;;3.30;1.10;;;26.10;53.20;;;;;;5030124;28;20456;-89
2022/08/01 10:25:05;;;;;;;2.73;1.30;;;26.10;52.70;;;;;;5029447;28;21083;-88
2022/08/01 10:27:54;;;;;;;2.30;1.23;;;26.30;54.10;;;;;;5018712;28;21075;-87
2022/08/01 10:30:43;;;;;;;2.27;1.37;;;26.30;51.30;;;;;;5027117;28;20472;-88
2022/08/01 10:33:30;;;;;;;2.97;1.60;;;26.30;55.00;;;;;;5048479;28;20486;-88
2022/08/01 10:36:19;;;;;;;2.47;1.67;;;26.30;52.90;;;;;;5041852;28;20500;-89
2022/08/01 10:39:06;;;;;;;2.97;1.43;;;26.30;52.90;;;;;;5029410;28;20455;-88
2022/08/01 10:41:54;;;;;;;3.00;1.97;;;26.40;53.30;;;;;;5046183;28;20506;-88
2022/08/01 10:44:41;;;;;;;2.30;1.43;;;26.40;53.90;;;;;;5040948;28;20450;-89
2022/08/01 10:47:35;;;;;;;3.93;1.60;;;26.50;52.40;;;;;;5046671;28;20823;-89
2022/08/01 10:50:30;;;;;;;4.30;1.40;;;26.50;53.00;;;;;;5044983;28;20515;-89
2022/08/01 10:53:18;;;;;;;2.60;1.57;;;26.70;51.00;;;;;;5051714;28;20435;-88
2022/08/01 10:56:05;;;;;;;2.80;1.43;;;26.90;48.60;;;;;;5042818;28;20559;-89
2022/08/01 10:59:01;;;;;;;3.23;1.93;;;27.00;47.80;;;;;;5029649;28;20463;-89
2022/08/01 11:01:58;;;;;;;3.57;1.60;;;26.70;47.10;;;;;;5035939;28;20444;-89
2022/08/01 11:04:55;;;;;;;3.60;1.67;;;26.70;46.90;;;;;;5036834;28;20455;-89
2022/08/01 11:07:46;;;;;;;4.73;1.63;;;26.80;47.70;;;;;;5028774;28;20543;-88
2022/08/01 11:10:39;;;;;;;2.50;1.50;;;26.80;48.60;;;;;;5049520;28;20450;-90
2022/08/01 11:13:58;;;;;;;2.80;1.17;;;26.60;46.60;;;;;;5048316;28;20482;-89
2022/08/01 11:16:45;;;;;;;2.40;1.33;;;26.60;46.60;;;;;;5037285;28;20425;-89
2022/08/01 11:20:08;;;;;;;2.20;1.40;;;26.40;47.30;;;;;;5031964;28;20532;-88
2022/08/01 11:23:32;;;;;;;2.10;1.20;;;26.30;48.20;;;;;;5039722;28;20937;-89
2022/08/01 11:26:18;;;;;;;2.20;1.40;;;26.30;49.70;;;;;;5032674;28;20472;-89
2022/08/01 11:29:19;;;;;;;2.50;1.50;;;26.30;51.00;;;;;;5035461;28;20497;-89
2022/08/01 11:32:27;;;;;;;2.20;1.10;;;26.20;50.70;;;;;;5047146;28;20944;-88
2022/08/01 11:35:13;;;;;;;2.90;1.60;;;26.30;48.30;;;;;;5040687;28;20440;-88
2022/08/01 11:38:27;;;;;;;3.03;1.40;;;26.50;48.80;;;;;;5031209;28;20863;-89
2022/08/01 11:41:14;;;;;;;2.70;1.50;;;26.50;46.20;;;;;;5046393;28;20448;-89
2022/08/01 11:44:01;;;;;;;2.83;1.57;;;26.60;46.20;;;;;;5051978;28;20470;-88
2022/08/01 11:46:52;;;;;;;2.87;1.47;;;26.60;46.90;;;;;;5046056;28;20440;-89
2022/08/01 11:49:50;;;;;;;4.53;1.60;;;26.80;47.50;;;;;;5048886;28;20436;-90
2022/08/01 11:52:38;;;;;;;5.47;1.67;;;27.10;46.10;;;;;;5030065;28;20444;-88
2022/08/01 11:55:24;;;;;;;2.67;1.83;;;27.30;43.30;;;;;;5033515;28;20574;-88
2022/08/01 11:58:10;;;;;;;3.67;1.50;;;27.40;44.90;;;;;;5024768;28;20954;-90
2022/08/01 12:00:57;;;;;;;5.90;1.47;;;27.50;45.00;;;;;;5029994;28;20464;-89
2022/08/01 12:03:42;;;;;;;2.80;1.37;;;27.30;43.90;;;;;;5029798;28;20432;-89
2022/08/01 12:06:30;;;;;;;2.47;1.30;;;27.30;44.00;;;;;;5022179;28;20588;-89
2022/08/01 12:09:20;;;;;;;3.57;1.13;;;27.30;45.30;;;;;;5029791;28;20444;-90
2022/08/01 12:12:06;;;;;;;2.80;1.70;;;27.40;46.80;;;;;;5029922;28;20444;-89
2022/08/01 12:14:57;;;;;;;2.87;1.23;;;27.60;46.70;;;;;;5039327;28;20447;-89
2022/08/01 12:17:44;;;;;;;2.10;1.30;;;27.80;44.30;;;;;;5024294;28;20453;-89
2022/08/01 12:20:32;;;;;;;2.40;1.37;;;27.80;40.40;;;;;;5034121;28;20558;-91
2022/08/01 12:23:19;;;;;;;3.03;1.53;;;27.90;42.00;;;;;;5033432;28;20444;-88
2022/08/01 12:26:05;;;;;;;3.80;1.37;;;27.80;41.60;;;;;;5026606;28;22790;-88
2022/08/01 12:28:52;;;;;;;4.10;1.50;;;27.90;41.10;;;;;;5031002;28;20459;-89
2022/08/01 12:31:38;;;;;;;2.93;1.60;;;27.80;38.70;;;;;;5026225;28;20460;-89
2022/08/01 12:34:27;;;;;;;2.17;1.33;;;27.80;39.60;;;;;;5027911;28;20452;-89
2022/08/01 12:37:13;;;;;;;3.47;1.67;;;27.90;39.20;;;;;;5034197;28;20806;-88
2022/08/01 12:40:00;;;;;;;3.73;1.37;;;27.70;38.90;;;;;;5045597;28;20494;-89
2022/08/01 12:42:48;;;;;;;2.87;1.30;;;27.50;40.30;;;;;;5026020;28;20520;-88
2022/08/01 12:45:35;;;;;;;2.93;1.40;;;27.30;40.20;;;;;;5030598;28;20459;-88
2022/08/01 12:48:21;;;;;;;2.43;1.60;;;27.40;40.60;;;;;;5033571;28;20440;-89
2022/08/01 12:51:09;;;;;;;3.00;1.67;;;27.70;41.20;;;;;;5034653;28;20453;-88
2022/08/01 12:53:55;;;;;;;2.30;1.40;;;27.80;38.70;;;;;;5030947;28;20451;-88
2022/08/01 12:56:42;;;;;;;2.60;1.60;;;27.80;38.80;;;;;;5031288;28;20468;-89
2022/08/01 12:59:29;;;;;;;3.43;1.70;;;27.80;41.20;;;;;;5027237;28;20436;-89
2022/08/01 13:02:15;;;;;;;3.63;1.57;;;27.90;42.20;;;;;;5031519;28;20657;-89
2022/08/01 13:05:00;;;;;;;2.33;1.10;;;28.00;40.40;;;;;;5027813;28;20477;-89
2022/08/01 13:07:49;;;;;;;2.37;1.33;;;27.90;38.00;;;;;;5031231;28;20440;-88
2022/08/01 13:10:35;;;;;;;3.07;1.30;;;27.90;38.50;;;;;;5034397;28;20830;-89
2022/08/01 13:13:22;;;;;;;4.93;2.10;;;27.80;38.70;;;;;;5032316;28;20440;-89
2022/08/01 13:16:09;;;;;;;2.40;1.40;;;28.00;39.20;;;;;;5025693;28;20534;-88
2022/08/01 13:18:56;;;;;;;2.50;1.40;;;28.00;37.50;;;;;;5030514;28;20444;-88
2022/08/01 13:21:55;;;;;;;6.83;1.40;;;28.10;39.70;;;;;;5025619;28;20472;-90
2022/08/01 13:24:41;;;;;;;3.23;1.60;;;28.40;38.70;;;;;;5030143;28;20541;-87
2022/08/01 13:27:29;;;;;;;2.93;1.47;;;28.40;35.10;;;;;;5029733;28;20560;-89
2022/08/01 13:30:19;;;;;;;2.67;1.33;;;28.50;36.50;;;;;;5027892;28;20472;-89
2022/08/01 13:33:05;;;;;;;2.47;1.20;;;28.70;33.50;;;;;;5025137;28;20445;-88
2022/08/01 13:35:52;;;;;;;2.70;1.30;;;28.90;34.50;;;;;;5023733;28;20452;-88
2022/08/01 13:41:42;;;;;;;2.00;1.10;;;29.30;31.30;;;;;;5044814;22;20487;-71
2022/08/01 13:44:28;;;;;;;2.90;1.17;;;29.50;31.50;;;;;;5035306;28;20811;-72
2022/08/01 13:47:15;;;;;;;4.00;1.30;;;29.70;30.20;;;;;;5026068;28;20445;-72
2022/08/01 13:50:02;;;;;;;2.63;1.33;;;29.50;30.50;;;;;;5030792;28;20494;-71
2022/08/01 13:52:48;;;;;;;3.10;1.23;;;29.30;31.20;;;;;;5035181;28;20451;-71
2022/08/01 13:55:33;;;;;;;3.53;1.40;;;29.10;31.20;;;;;;5035540;28;20526;-72
2022/08/01 13:58:19;;;;;;;2.70;1.47;;;28.80;32.80;;;;;;5033729;28;20445;-72
2022/08/01 14:01:05;;;;;;;2.63;1.33;;;28.60;33.50;;;;;;5037766;28;20537;-72
2022/08/01 14:03:52;;;;;;;2.47;1.10;;;28.60;33.50;;;;;;5036625;28;20443;-71
2022/08/01 14:06:38;;;;;;;2.30;1.30;;;28.50;32.40;;;;;;5031127;28;20558;-72
2022/08/01 14:09:23;;;;;;;2.10;1.07;;;28.40;33.30;;;;;;5041622;28;20534;-72
2022/08/01 14:12:09;;;;;;;2.20;1.30;;;28.50;33.80;;;;;;5037594;28;20447;-72
2022/08/01 14:14:55;;;;;;;2.87;1.37;;;28.60;33.50;;;;;;5027107;28;20452;-72
2022/08/01 14:17:40;;;;;;;4.10;1.30;;;28.60;33.70;;;;;;5035826;28;20515;-71
2022/08/01 14:20:27;;;;;;;2.50;1.40;;;28.70;33.50;;;;;;5035272;28;20467;-71
2022/08/01 14:23:13;;;;;;;2.43;1.23;;;28.80;32.90;;;;;;5031257;28;20484;-72
2022/08/01 14:25:59;;;;;;;3.60;1.40;;;28.70;34.90;;;;;;5023857;28;20490;-72
2022/08/01 14:28:44;;;;;;;2.77;1.40;;;28.50;33.40;;;;;;5027826;28;20444;-71
2022/08/01 14:31:30;;;;;;;2.67;1.03;;;28.20;33.20;;;;;;5031304;28;20817;-71
2022/08/01 14:34:16;;;;;;;4.23;1.27;;;28.10;33.10;;;;;;5029638;28;20447;-73
2022/08/01 14:37:03;;;;;;;2.50;1.13;;;28.10;33.10;;;;;;5022739;28;20440;-72